Portada
METAR-TAF:

METAR-TAF

Aeropuertos :

Aeropuerto Internacional de Yamena

Yamena, Chad

latitud: 12-08N, longitud: 015-02E, altitud: 295 m

METAR: falta

Hora: 15:38 (14:38 UTC)

Pronóstico

El informe se hizo hace 27 horas y 38 minutos, a las 11:00 UTC
Pronóstico válido del 23 a las 12 UTC al 24 a las 18 UTC
Viento 6 kt del sur-suroeste
Visibilidad: 6000 m
Temporalmente
del 23 a las 15 UTC al 23 a las 19 UTC
Visibilidad: 4000 m
calima
Probabilidad 30% :
Temporalmente
del 23 a las 22 UTC al 24 a las 08 UTC
Visibilidad: 2500 m
Polvo extendido

TAF: FTTJ 231100Z 2312/2418 21006KT 6000 NSC TEMPO 2315/2319 4000 HZ PROB30 TEMPO 2322/2408 2500 DU

Observaciones y pronósticos meteorológicos de más de 4000 aeropuertos (mensajes METAR y TAF).

Los puntos amarillos y rojos representan las estaciones disponibles.

Ponga el ratón en el punto deseado para ver el nombre de la estación.

Haga clic para ver las observaciones y los pronósticos meteorológicos.

Para cambiar el mapa : haga clic en los botones verdes con una cruz de color negro para hacer un zoom, en el botón verde con un guión para alejar o en las flechas verdes para mapas adyacentes.


METAR-TAF: